createdAt,value
2023-03-30T00:00:01.085Z,3.80
2023-03-30T00:02:31.075Z,3.40
2023-03-30T00:05:03.363Z,3.37
2023-03-30T00:07:30.520Z,3.73
2023-03-30T00:09:57.537Z,3.03
2023-03-30T00:12:24.145Z,3.33
2023-03-30T00:14:50.665Z,3.07
2023-03-30T00:17:17.690Z,2.87
2023-03-30T00:19:44.226Z,2.90
2023-03-30T00:22:11.593Z,2.60
2023-03-30T00:24:38.074Z,2.40
2023-03-30T00:27:04.646Z,2.50
2023-03-30T00:29:31.227Z,2.43
2023-03-30T00:31:57.873Z,2.40
2023-03-30T00:34:24.406Z,2.73
2023-03-30T00:36:53.479Z,2.57
2023-03-30T00:39:23.259Z,2.60
2023-03-30T00:41:49.787Z,2.43
2023-03-30T00:44:35.170Z,2.20
2023-03-30T00:47:01.646Z,2.80
2023-03-30T00:49:28.190Z,2.60
2023-03-30T00:51:54.729Z,2.70
2023-03-30T00:54:21.478Z,2.97
2023-03-30T00:56:48.429Z,2.67
2023-03-30T00:59:14.995Z,3.07
2023-03-30T01:01:41.958Z,3.40
2023-03-30T01:04:08.699Z,3.53
2023-03-30T01:06:35.228Z,3.57
2023-03-30T01:09:01.703Z,3.80
2023-03-30T01:11:28.288Z,3.97
2023-03-30T01:13:58.709Z,4.60
2023-03-30T01:16:25.495Z,3.83
2023-03-30T01:19:06.235Z,3.87
2023-03-30T01:21:55.686Z,3.83
2023-03-30T01:24:28.593Z,3.70
2023-03-30T01:26:56.897Z,4.50
2023-03-30T01:29:42.055Z,4.10
2023-03-30T01:32:17.025Z,3.90
2023-03-30T01:34:43.709Z,3.93
2023-03-30T01:37:10.747Z,4.77
2023-03-30T01:39:42.051Z,3.70
2023-03-30T01:42:09.388Z,4.47
2023-03-30T01:44:44.168Z,4.27
2023-03-30T01:47:29.129Z,4.90
2023-03-30T01:50:15.688Z,4.47
2023-03-30T01:52:42.645Z,6.07
2023-03-30T01:55:10.618Z,6.23
2023-03-30T01:57:40.305Z,6.50
2023-03-30T02:00:13.203Z,6.47
2023-03-30T02:02:41.347Z,6.60
2023-03-30T02:05:08.109Z,5.83
2023-03-30T02:07:34.603Z,6.17
2023-03-30T02:10:01.950Z,5.43
2023-03-30T02:12:30.175Z,5.40
2023-03-30T02:14:57.899Z,6.47
2023-03-30T02:17:24.814Z,6.33
2023-03-30T02:19:51.529Z,6.93
2023-03-30T02:22:18.675Z,7.03
2023-03-30T02:24:45.446Z,5.90
2023-03-30T02:27:12.005Z,5.93
2023-03-30T02:29:39.812Z,5.40
2023-03-30T02:32:06.457Z,5.30
2023-03-30T02:34:45.835Z,4.90
2023-03-30T02:37:15.487Z,5.63
2023-03-30T02:40:14.547Z,5.00
2023-03-30T02:42:55.458Z,6.70
2023-03-30T02:45:29.423Z,6.60
2023-03-30T02:48:14.362Z,6.13
2023-03-30T02:50:43.815Z,5.33
2023-03-30T02:53:29.169Z,6.00
2023-03-30T02:56:04.259Z,5.53
2023-03-30T02:58:41.703Z,5.20
2023-03-30T03:01:16.267Z,5.70
2023-03-30T03:03:46.400Z,5.97
2023-03-30T03:06:14.801Z,5.20
2023-03-30T03:08:42.650Z,5.03
2023-03-30T03:11:09.382Z,4.87
2023-03-30T03:13:37.167Z,4.33
2023-03-30T03:16:04.453Z,4.43
2023-03-30T03:18:31.483Z,4.17
2023-03-30T03:20:58.616Z,4.00
2023-03-30T03:23:25.123Z,4.03
2023-03-30T03:25:51.626Z,3.63
2023-03-30T03:28:18.232Z,3.70
2023-03-30T03:30:45.326Z,4.00
2023-03-30T03:33:12.278Z,4.00
2023-03-30T03:35:39.713Z,3.97
2023-03-30T03:38:07.788Z,3.53
2023-03-30T03:40:34.408Z,3.63
2023-03-30T03:43:00.958Z,3.97
2023-03-30T03:45:27.548Z,3.70
2023-03-30T03:47:54.445Z,3.87
2023-03-30T03:50:21.183Z,3.70
2023-03-30T03:52:47.803Z,4.27
2023-03-30T03:55:14.340Z,4.10
2023-03-30T03:57:40.867Z,3.97
2023-03-30T04:00:15.784Z,4.47
2023-03-30T04:02:43.041Z,4.27
2023-03-30T04:05:09.819Z,4.63
2023-03-30T04:07:37.075Z,4.27
2023-03-30T04:10:04.189Z,4.67
2023-03-30T04:12:30.828Z,4.33
2023-03-30T04:14:57.465Z,5.03
2023-03-30T04:17:24.068Z,4.77
2023-03-30T04:19:53.848Z,4.70
2023-03-30T04:22:20.857Z,4.60
2023-03-30T04:24:47.449Z,4.50
2023-03-30T04:27:16.982Z,4.80
2023-03-30T04:29:44.878Z,4.93
2023-03-30T04:32:12.849Z,4.33
2023-03-30T04:34:42.760Z,3.97
2023-03-30T04:37:09.764Z,4.20
2023-03-30T04:39:36.490Z,4.43
2023-03-30T04:42:04.289Z,4.50
2023-03-30T04:44:31.161Z,5.97
2023-03-30T04:46:57.691Z,5.47
2023-03-30T04:49:24.230Z,6.10
2023-03-30T04:51:51.570Z,5.47
2023-03-30T04:54:18.209Z,4.43
2023-03-30T04:56:44.730Z,5.23
2023-03-30T04:59:11.437Z,4.87
2023-03-30T05:01:38.107Z,5.10
2023-03-30T05:04:04.668Z,4.37
2023-03-30T05:06:31.245Z,5.13
2023-03-30T05:08:57.842Z,4.77
2023-03-30T05:11:24.371Z,4.63
2023-03-30T05:13:51.678Z,5.27
2023-03-30T05:16:18.368Z,5.80
2023-03-30T05:18:44.964Z,4.63
2023-03-30T05:21:11.729Z,5.53
2023-03-30T05:23:39.843Z,4.97
2023-03-30T05:26:07.755Z,5.43
2023-03-30T05:28:34.459Z,6.60
2023-03-30T05:31:01.134Z,5.67
2023-03-30T05:33:27.888Z,5.27
2023-03-30T05:35:55.698Z,5.43
2023-03-30T05:38:22.363Z,5.47
2023-03-30T05:40:51.819Z,5.17
2023-03-30T05:43:18.270Z,5.30
2023-03-30T05:45:44.869Z,5.77
2023-03-30T05:48:11.418Z,4.73
2023-03-30T05:50:38.317Z,5.20
2023-03-30T05:53:04.875Z,4.87
2023-03-30T05:55:31.670Z,4.87
2023-03-30T05:57:58.365Z,4.93
2023-03-30T06:00:25.924Z,5.83
2023-03-30T06:02:52.558Z,5.40
2023-03-30T06:05:19.063Z,6.23
2023-03-30T06:07:45.934Z,5.83
2023-03-30T06:10:13.189Z,5.90
2023-03-30T06:12:40.250Z,5.40
2023-03-30T06:15:09.244Z,5.40
2023-03-30T06:17:36.527Z,4.50
2023-03-30T06:20:08.536Z,4.70
2023-03-30T06:22:35.360Z,5.40
2023-03-30T06:25:01.926Z,4.63
2023-03-30T06:27:31.674Z,4.93
2023-03-30T06:29:58.157Z,3.80
2023-03-30T06:32:25.455Z,4.33
2023-03-30T06:34:53.210Z,3.63
2023-03-30T06:37:20.902Z,3.93
2023-03-30T06:39:47.465Z,4.13
2023-03-30T06:42:13.987Z,3.90
2023-03-30T06:44:40.498Z,3.87
2023-03-30T06:47:07.748Z,4.20
2023-03-30T06:49:34.336Z,3.70
2023-03-30T06:52:04.905Z,4.90
2023-03-30T06:54:32.823Z,3.83
2023-03-30T06:56:59.408Z,4.50
2023-03-30T06:59:26.049Z,4.13
2023-03-30T07:01:52.918Z,3.80
2023-03-30T07:04:19.641Z,4.27
2023-03-30T07:06:46.221Z,4.03
2023-03-30T07:09:13.209Z,4.10
2023-03-30T07:11:39.921Z,3.90
2023-03-30T07:14:07.611Z,4.20
2023-03-30T07:16:34.239Z,4.70
2023-03-30T07:19:00.837Z,3.43
2023-03-30T07:21:27.399Z,3.63
2023-03-30T07:23:53.924Z,3.90
2023-03-30T07:26:21.421Z,3.60
2023-03-30T07:28:48.119Z,3.60
2023-03-30T07:31:14.970Z,4.03
2023-03-30T07:33:41.995Z,3.20
2023-03-30T07:36:08.860Z,3.60
2023-03-30T07:38:35.390Z,3.87
2023-03-30T07:41:02.312Z,3.47
2023-03-30T07:43:30.093Z,2.80
2023-03-30T07:45:56.827Z,2.73
2023-03-30T07:48:23.933Z,2.60
2023-03-30T07:50:51.928Z,2.60
2023-03-30T07:53:18.457Z,2.47
2023-03-30T07:55:44.948Z,2.30
2023-03-30T07:58:11.687Z,2.33
2023-03-30T08:00:38.578Z,2.43
2023-03-30T08:03:05.143Z,2.50
2023-03-30T08:05:31.932Z,2.30
2023-03-30T08:07:58.470Z,2.10
2023-03-30T08:10:24.963Z,2.23
2023-03-30T08:12:51.684Z,2.00
2023-03-30T08:15:18.262Z,2.23
2023-03-30T08:17:44.835Z,1.70
2023-03-30T08:20:11.836Z,2.00
2023-03-30T08:22:38.828Z,2.17
2023-03-30T08:25:05.539Z,1.90
2023-03-30T08:27:32.517Z,1.97
2023-03-30T08:29:59.095Z,2.33
2023-03-30T08:32:25.596Z,2.50
2023-03-30T08:34:54.047Z,2.20
2023-03-30T08:37:20.548Z,1.77
2023-03-30T08:39:47.061Z,1.70
2023-03-30T08:42:27.500Z,1.73
2023-03-30T08:44:54.895Z,1.90
2023-03-30T08:47:27.155Z,2.07
2023-03-30T08:49:58.420Z,2.10
2023-03-30T08:52:24.961Z,2.05
2023-03-30T08:54:52.325Z,1.73
2023-03-30T08:57:22.573Z,2.67
2023-03-30T08:59:52.139Z,2.45
2023-03-30T09:02:38.193Z,2.77
2023-03-30T09:05:07.976Z,2.23
2023-03-30T09:07:38.469Z,2.05
2023-03-30T09:10:08.765Z,2.00
2023-03-30T09:12:42.834Z,2.33
2023-03-30T09:15:13.799Z,1.87
2023-03-30T09:17:41.712Z,1.80
2023-03-30T09:20:12.510Z,2.00
2023-03-30T09:22:39.759Z,2.03
2023-03-30T09:25:12.189Z,2.05
2023-03-30T09:27:59.099Z,2.13
2023-03-30T09:30:26.797Z,1.85
2023-03-30T09:33:00.385Z,1.92
2023-03-30T09:35:29.277Z,1.50
2023-03-30T09:37:55.893Z,1.42
2023-03-30T09:40:37.553Z,2.20
2023-03-30T09:43:23.015Z,3.17
2023-03-30T09:45:49.549Z,2.13
2023-03-30T09:48:16.570Z,1.55
2023-03-30T09:50:43.813Z,2.03
2023-03-30T09:53:26.408Z,1.77
2023-03-30T09:56:00.502Z,1.50
2023-03-30T09:58:31.107Z,2.55
2023-03-30T10:01:02.069Z,1.88
2023-03-30T10:03:29.343Z,1.88
2023-03-30T10:06:25.320Z,1.83
2023-03-30T10:08:52.452Z,1.67
2023-03-30T10:11:22.713Z,1.70
2023-03-30T10:13:49.457Z,1.80
2023-03-30T10:16:34.247Z,1.58
2023-03-30T10:19:04.605Z,1.92
2023-03-30T10:21:31.874Z,1.73
2023-03-30T10:24:18.763Z,1.88
2023-03-30T10:26:45.990Z,1.90
2023-03-30T10:29:13.705Z,1.23
2023-03-30T10:31:42.633Z,1.77
2023-03-30T10:34:23.886Z,1.10
2023-03-30T10:36:53.253Z,1.23
2023-03-30T10:39:25.466Z,1.73
2023-03-30T10:41:51.957Z,1.60
2023-03-30T10:44:30.804Z,1.10
2023-03-30T10:47:23.768Z,1.08
2023-03-30T10:49:54.121Z,1.27
2023-03-30T10:52:26.697Z,0.93
2023-03-30T10:54:53.262Z,0.90
2023-03-30T10:57:21.087Z,1.10
2023-03-30T10:59:59.820Z,1.27
2023-03-30T11:02:26.758Z,1.30
2023-03-30T11:04:59.051Z,1.40
2023-03-30T11:07:55.353Z,1.17
2023-03-30T11:10:29.233Z,1.20
2023-03-30T11:12:57.177Z,1.48
2023-03-30T11:15:37.857Z,1.20
2023-03-30T11:18:05.957Z,1.30
2023-03-30T11:20:33.716Z,2.10
2023-03-30T11:23:00.455Z,1.45
2023-03-30T11:25:30.934Z,1.50
2023-03-30T11:28:00.136Z,1.70
2023-03-30T11:30:27.826Z,1.40
2023-03-30T11:32:54.534Z,1.52
2023-03-30T11:35:21.240Z,1.63
2023-03-30T11:38:06.609Z,1.58
2023-03-30T11:40:41.227Z,1.23
2023-03-30T11:43:09.864Z,1.33
2023-03-30T11:45:36.403Z,1.50
2023-03-30T11:48:15.223Z,1.23
2023-03-30T11:50:45.850Z,1.30
2023-03-30T11:53:24.457Z,1.65
2023-03-30T11:56:13.967Z,1.38
2023-03-30T11:58:42.516Z,1.42
2023-03-30T12:01:27.903Z,1.20
2023-03-30T12:04:14.700Z,1.08
2023-03-30T12:06:42.102Z,1.13
2023-03-30T12:09:19.237Z,1.48
2023-03-30T12:11:46.644Z,1.52
2023-03-30T12:14:23.671Z,1.80
2023-03-30T12:16:51.259Z,1.63
2023-03-30T12:19:25.430Z,1.90
2023-03-30T12:21:59.481Z,2.00
2023-03-30T12:24:28.300Z,2.08
2023-03-30T12:27:05.269Z,1.70
2023-03-30T12:32:22.357Z,1.73
2023-03-30T12:34:49.036Z,1.60
2023-03-30T12:37:21.283Z,1.33
2023-03-30T12:40:26.214Z,1.38
2023-03-30T12:42:55.834Z,1.42
2023-03-30T12:45:27.752Z,1.30
2023-03-30T12:47:54.263Z,1.65
2023-03-30T12:50:21.246Z,1.42
2023-03-30T12:52:47.808Z,1.50
2023-03-30T12:55:33.223Z,1.38
2023-03-30T12:57:59.691Z,1.60
2023-03-30T13:00:29.825Z,1.48
2023-03-30T13:03:15.477Z,1.45
2023-03-30T13:05:42.893Z,1.40
2023-03-30T13:08:10.857Z,1.50
2023-03-30T13:10:38.913Z,1.52
2023-03-30T13:13:06.187Z,1.70
2023-03-30T13:15:52.105Z,1.90
2023-03-30T13:18:18.595Z,1.23
2023-03-30T13:20:47.898Z,1.60
2023-03-30T13:23:14.518Z,1.58
2023-03-30T13:25:45.402Z,1.67
2023-03-30T13:28:30.534Z,1.95
2023-03-30T13:30:59.314Z,2.08
2023-03-30T13:33:25.924Z,2.75
2023-03-30T13:35:55.177Z,2.33
2023-03-30T13:38:21.774Z,2.63
2023-03-30T13:41:03.816Z,1.73
2023-03-30T13:43:50.799Z,2.38
2023-03-30T13:46:35.549Z,2.42
2023-03-30T13:49:08.233Z,2.40
2023-03-30T13:51:35.519Z,2.67
2023-03-30T13:54:07.307Z,2.97
2023-03-30T13:56:35.242Z,2.13
2023-03-30T13:59:10.640Z,3.13
2023-03-30T14:01:39.657Z,2.25
2023-03-30T14:04:06.887Z,3.15
2023-03-30T14:06:36.288Z,2.78
2023-03-30T14:09:05.912Z,2.88
2023-03-30T14:11:32.458Z,2.92
2023-03-30T14:13:59.024Z,3.33
2023-03-30T14:16:26.258Z,3.47
2023-03-30T14:18:53.242Z,3.00
2023-03-30T14:21:20.719Z,3.78
2023-03-30T14:23:53.414Z,3.15
2023-03-30T14:26:19.941Z,3.33
2023-03-30T14:28:46.927Z,3.50
2023-03-30T14:31:20.322Z,4.07
2023-03-30T14:33:47.017Z,3.15
2023-03-30T14:36:17.043Z,4.13
2023-03-30T14:38:44.010Z,4.00
2023-03-30T14:41:13.434Z,4.40
2023-03-30T14:43:40.795Z,4.20
2023-03-30T14:46:10.200Z,4.15
2023-03-30T14:48:37.713Z,4.00
2023-03-30T14:51:07.831Z,4.00
2023-03-30T14:53:34.351Z,3.53
2023-03-30T14:56:01.113Z,4.38
2023-03-30T14:58:31.738Z,4.97
2023-03-30T15:01:03.677Z,5.00
2023-03-30T15:03:33.889Z,4.70
2023-03-30T15:06:04.022Z,5.50
2023-03-30T15:08:31.425Z,5.20
2023-03-30T15:11:08.220Z,4.80
2023-03-30T15:13:39.395Z,5.40
2023-03-30T15:16:06.203Z,5.68
2023-03-30T15:18:33.214Z,6.70
2023-03-30T15:20:59.860Z,8.00
2023-03-30T15:23:29.983Z,8.00
2023-03-30T15:25:57.447Z,8.05
2023-03-30T15:28:24.197Z,7.38
2023-03-30T15:30:51.494Z,7.80
2023-03-30T15:33:38.341Z,6.78
2023-03-30T15:36:12.499Z,6.90
2023-03-30T15:38:52.658Z,6.55
2023-03-30T15:41:22.373Z,6.05
2023-03-30T15:43:55.947Z,6.95
2023-03-30T15:46:22.505Z,7.75
2023-03-30T15:48:50.125Z,7.32
2023-03-30T15:51:21.379Z,7.22
2023-03-30T15:53:53.738Z,8.13
2023-03-30T15:56:23.682Z,7.75
2023-03-30T15:58:51.069Z,8.63
2023-03-30T16:01:17.682Z,7.78
2023-03-30T16:03:51.555Z,8.27
2023-03-30T16:06:18.097Z,7.72
2023-03-30T16:08:45.331Z,8.93
2023-03-30T16:11:11.908Z,7.40
2023-03-30T16:13:45.603Z,8.95
2023-03-30T16:16:14.041Z,8.68
2023-03-30T16:18:42.491Z,8.55
2023-03-30T16:21:11.047Z,7.97
2023-03-30T16:23:37.940Z,7.53
2023-03-30T16:26:04.988Z,6.95
2023-03-30T16:28:32.005Z,7.13
2023-03-30T16:30:59.844Z,8.02
2023-03-30T16:33:26.331Z,7.80
2023-03-30T16:35:52.888Z,7.03
2023-03-30T16:38:19.478Z,8.85
2023-03-30T16:40:47.520Z,9.18
2023-03-30T16:43:14.064Z,8.93
2023-03-30T16:45:40.672Z,9.25
2023-03-30T16:48:07.272Z,8.30
2023-03-30T16:50:33.772Z,9.15
2023-03-30T16:53:00.352Z,9.75
2023-03-30T16:55:26.871Z,10.02
2023-03-30T16:57:53.341Z,11.48
2023-03-30T17:00:24.718Z,9.90
2023-03-30T17:02:51.824Z,11.27
2023-03-30T17:05:18.659Z,10.73
2023-03-30T17:07:45.473Z,10.80
2023-03-30T17:10:28.689Z,9.73
2023-03-30T17:12:55.567Z,11.52
2023-03-30T17:15:22.296Z,11.50
2023-03-30T17:17:48.962Z,12.00
2023-03-30T17:20:22.197Z,10.98
2023-03-30T17:22:49.024Z,11.98
2023-03-30T17:25:15.876Z,10.65
2023-03-30T17:27:42.377Z,11.32
2023-03-30T17:30:15.789Z,11.18
2023-03-30T17:32:42.444Z,11.65
2023-03-30T17:35:10.511Z,10.65
2023-03-30T17:37:37.103Z,10.65
2023-03-30T17:40:38.909Z,10.68
2023-03-30T17:43:08.350Z,12.25
2023-03-30T17:45:35.204Z,12.70
2023-03-30T17:48:02.217Z,13.35
2023-03-30T17:50:30.014Z,15.02
2023-03-30T17:52:56.684Z,13.95
2023-03-30T17:55:24.041Z,12.18
2023-03-30T17:57:51.696Z,12.30
2023-03-30T18:00:18.509Z,11.07
2023-03-30T18:02:45.098Z,10.85
2023-03-30T18:05:11.824Z,12.10
2023-03-30T18:07:38.431Z,12.05
2023-03-30T18:10:18.719Z,11.77
2023-03-30T18:12:45.320Z,10.35
2023-03-30T18:15:11.980Z,10.23
2023-03-30T18:17:38.542Z,10.20
2023-03-30T18:20:24.228Z,9.40
2023-03-30T18:22:50.855Z,9.55
2023-03-30T18:25:29.396Z,9.57
2023-03-30T18:27:58.498Z,9.45
2023-03-30T18:30:37.617Z,10.40
2023-03-30T18:33:04.442Z,10.43
2023-03-30T18:35:31.449Z,10.43
2023-03-30T18:37:58.101Z,9.75
2023-03-30T18:40:26.009Z,10.40
2023-03-30T18:42:52.723Z,12.20
2023-03-30T18:45:22.401Z,12.88
2023-03-30T18:47:48.963Z,13.00
2023-03-30T18:50:16.873Z,12.35
2023-03-30T18:52:43.391Z,12.95
2023-03-30T18:55:09.991Z,13.75
2023-03-30T18:57:36.627Z,12.30
2023-03-30T19:00:05.828Z,12.40
2023-03-30T19:02:32.435Z,13.00
2023-03-30T19:04:59.403Z,12.30
2023-03-30T19:07:25.944Z,12.55
2023-03-30T19:09:52.570Z,11.90
2023-03-30T19:12:19.066Z,11.85
2023-03-30T19:14:45.766Z,12.15
2023-03-30T19:17:12.490Z,12.75
2023-03-30T19:19:39.010Z,11.43
2023-03-30T19:22:05.609Z,10.30
2023-03-30T19:24:32.232Z,10.68
2023-03-30T19:26:58.806Z,11.40
2023-03-30T19:29:25.441Z,10.93
2023-03-30T19:31:53.003Z,10.75
2023-03-30T19:34:19.468Z,12.02
2023-03-30T19:36:46.004Z,10.90
2023-03-30T19:39:12.610Z,11.50
2023-03-30T19:41:39.112Z,11.13
2023-03-30T19:44:05.631Z,11.80
2023-03-30T19:46:32.195Z,11.27
2023-03-30T19:48:58.710Z,11.25
2023-03-30T19:51:25.213Z,10.80
2023-03-30T19:53:51.759Z,11.40
2023-03-30T19:56:18.387Z,11.65
2023-03-30T19:58:45.346Z,10.80
2023-03-30T20:01:11.999Z,10.38
2023-03-30T20:03:38.724Z,10.13
2023-03-30T20:06:08.281Z,10.23
2023-03-30T20:08:35.282Z,10.88
2023-03-30T20:11:01.987Z,10.70
2023-03-30T20:13:28.556Z,10.82
2023-03-30T20:15:55.928Z,10.98
2023-03-30T20:18:22.680Z,11.05
2023-03-30T20:20:49.197Z,11.30
2023-03-30T20:23:15.884Z,10.50
2023-03-30T20:25:46.730Z,11.07
2023-03-30T20:28:13.276Z,10.98
2023-03-30T20:30:39.782Z,11.43
2023-03-30T20:33:08.822Z,12.73
2023-03-30T20:35:36.375Z,13.07
2023-03-30T20:38:04.665Z,13.23
2023-03-30T20:40:31.445Z,12.40
2023-03-30T20:43:03.347Z,11.90
2023-03-30T20:45:30.822Z,12.60
2023-03-30T20:47:57.643Z,11.43
2023-03-30T20:50:24.199Z,11.27
2023-03-30T20:52:52.822Z,10.70
2023-03-30T20:55:19.388Z,10.80
2023-03-30T20:57:46.008Z,10.95
2023-03-30T21:00:12.935Z,10.63
2023-03-30T21:02:39.456Z,10.37
2023-03-30T21:05:06.656Z,10.85
2023-03-30T21:07:33.997Z,10.70
2023-03-30T21:10:00.519Z,10.90
2023-03-30T21:12:27.292Z,10.70
2023-03-30T21:14:53.841Z,10.98
2023-03-30T21:17:20.489Z,10.57
2023-03-30T21:19:46.992Z,10.07
2023-03-30T21:22:13.614Z,10.40
2023-03-30T21:24:40.121Z,10.47
2023-03-30T21:27:06.635Z,10.05
2023-03-30T21:29:33.299Z,10.65
2023-03-30T21:31:59.784Z,10.63
2023-03-30T21:34:26.280Z,10.30
2023-03-30T21:36:53.278Z,10.27
2023-03-30T21:39:19.962Z,9.87
2023-03-30T21:41:46.541Z,10.07
2023-03-30T21:44:13.055Z,10.40
2023-03-30T21:46:39.541Z,10.47
2023-03-30T21:49:06.127Z,10.15
2023-03-30T21:51:32.650Z,10.80
2023-03-30T21:53:59.313Z,11.10
2023-03-30T21:56:26.656Z,10.57
2023-03-30T21:58:53.185Z,11.95
2023-03-30T22:01:19.990Z,11.20
2023-03-30T22:03:46.810Z,11.63
2023-03-30T22:06:13.861Z,12.03
2023-03-30T22:08:40.646Z,11.80
2023-03-30T22:11:08.059Z,12.03
2023-03-30T22:13:34.583Z,12.20
2023-03-30T22:16:01.964Z,11.40
2023-03-30T22:18:28.605Z,11.90
2023-03-30T22:20:58.225Z,11.80
2023-03-30T22:23:24.782Z,12.03
2023-03-30T22:25:51.552Z,13.50
2023-03-30T22:28:18.017Z,13.33
2023-03-30T22:30:44.658Z,14.43
2023-03-30T22:33:11.488Z,14.47
2023-03-30T22:35:38.732Z,13.70
2023-03-30T22:38:05.805Z,14.55
2023-03-30T22:40:32.581Z,14.55
2023-03-30T22:42:59.112Z,14.30
2023-03-30T22:45:25.980Z,14.90
2023-03-30T22:47:52.563Z,14.67
2023-03-30T22:50:19.078Z,14.10
2023-03-30T22:52:45.588Z,14.40
2023-03-30T22:55:12.174Z,14.75
2023-03-30T22:57:38.761Z,15.40
2023-03-30T23:00:11.971Z,14.40
2023-03-30T23:02:38.873Z,16.03
2023-03-30T23:05:05.967Z,15.37
2023-03-30T23:07:34.769Z,14.10
2023-03-30T23:10:04.250Z,14.75
2023-03-30T23:12:31.811Z,16.98
2023-03-30T23:14:58.590Z,14.75
2023-03-30T23:17:26.267Z,15.33
2023-03-30T23:19:58.209Z,15.23
2023-03-30T23:22:25.113Z,16.37
2023-03-30T23:24:51.621Z,15.55
2023-03-30T23:27:18.195Z,15.20
2023-03-30T23:29:44.681Z,14.90
2023-03-30T23:32:11.330Z,15.75
2023-03-30T23:34:37.808Z,15.30
2023-03-30T23:37:04.360Z,15.65
2023-03-30T23:39:31.668Z,14.50
2023-03-30T23:41:58.174Z,17.00
2023-03-30T23:44:24.685Z,15.90
2023-03-30T23:46:51.345Z,15.50
2023-03-30T23:49:18.315Z,15.33
2023-03-30T23:51:45.023Z,15.07
2023-03-30T23:54:11.936Z,15.93
2023-03-30T23:56:38.574Z,15.90
2023-03-30T23:59:05.450Z,14.70
